createdAt,value
2022-12-22T00:00:00.941Z,1015.46
2022-12-22T00:10:00.980Z,1015.41
2022-12-22T00:20:02.000Z,1015.37
2022-12-22T00:30:02.412Z,1015.29
2022-12-22T00:40:01.511Z,1015.25
2022-12-22T00:50:01.071Z,1015.13
2022-12-22T01:10:01.252Z,1014.99
2022-12-22T01:20:01.092Z,1014.94
2022-12-22T01:30:01.573Z,1014.80
2022-12-22T01:40:01.096Z,1014.65
2022-12-22T01:50:01.097Z,1014.51
2022-12-22T02:00:01.045Z,1014.41
2022-12-22T02:10:01.771Z,1014.26
2022-12-22T02:20:00.951Z,1014.16
2022-12-22T02:30:04.620Z,1014.06
2022-12-22T02:40:00.994Z,1013.73
2022-12-22T02:50:01.857Z,1013.58
2022-12-22T03:00:01.337Z,1013.56
2022-12-22T03:10:01.240Z,1013.40
2022-12-22T03:20:01.144Z,1013.47
2022-12-22T03:30:01.360Z,1013.22
2022-12-22T03:40:01.061Z,1013.18
2022-12-22T03:50:01.074Z,1013.10
2022-12-22T04:00:01.095Z,1012.99
2022-12-22T04:10:01.176Z,1012.76
2022-12-22T04:20:01.390Z,1012.64
2022-12-22T04:30:01.529Z,1012.61
2022-12-22T04:40:01.270Z,1012.44
2022-12-22T04:50:01.469Z,1012.40
2022-12-22T05:00:01.878Z,1012.33
2022-12-22T05:10:01.323Z,1012.17
2022-12-22T05:20:03.133Z,1012.03
2022-12-22T05:30:01.068Z,1011.98
2022-12-22T05:40:01.027Z,1011.95
2022-12-22T05:50:01.892Z,1011.79
2022-12-22T06:00:01.318Z,1011.64
2022-12-22T06:10:03.913Z,1011.61
2022-12-22T06:20:00.972Z,1011.53
2022-12-22T06:30:00.215Z,1011.27
2022-12-22T06:40:01.102Z,1011.23
2022-12-22T06:50:00.965Z,1011.26
2022-12-22T07:00:01.304Z,1011.11
2022-12-22T07:10:01.087Z,1011.22
2022-12-22T07:20:01.020Z,1010.98
2022-12-22T07:30:00.140Z,1010.97
2022-12-22T07:40:00.869Z,1010.99
2022-12-22T07:50:00.969Z,1010.82
2022-12-22T08:00:01.315Z,1010.67
2022-12-22T08:10:01.524Z,1010.70
2022-12-22T08:30:01.959Z,1010.43
2022-12-22T08:40:01.424Z,1010.38
2022-12-22T08:50:01.083Z,1010.24
2022-12-22T09:00:02.638Z,1010.14
2022-12-22T09:10:01.938Z,1010.01
2022-12-22T09:20:00.839Z,1009.98
2022-12-22T09:30:01.633Z,1009.97
2022-12-22T09:40:01.338Z,1009.89
2022-12-22T09:50:01.092Z,1009.81
2022-12-22T10:00:02.630Z,1009.71
2022-12-22T10:10:00.144Z,1009.62
2022-12-22T10:20:01.020Z,1009.56
2022-12-22T10:30:01.313Z,1009.46
2022-12-22T10:40:01.979Z,1009.24
2022-12-22T11:00:01.400Z,1009.10
2022-12-22T11:10:01.085Z,1009.03
2022-12-22T11:20:01.479Z,1008.86
2022-12-22T11:30:00.997Z,1008.69
2022-12-22T11:40:01.247Z,1008.67
2022-12-22T11:50:50.526Z,1008.62
2022-12-22T12:00:01.332Z,1008.56
2022-12-22T12:10:01.290Z,1008.57
2022-12-22T12:20:01.166Z,1008.56
2022-12-22T12:30:36.087Z,1008.61
2022-12-22T12:40:01.091Z,1008.59
2022-12-22T12:50:00.968Z,1008.55
2022-12-22T13:00:00.984Z,1008.56
2022-12-22T13:10:01.022Z,1008.64
2022-12-22T13:20:01.311Z,1008.73
2022-12-22T13:30:00.987Z,1008.80
2022-12-22T13:40:00.172Z,1008.94
2022-12-22T13:50:09.796Z,1008.97
2022-12-22T14:00:01.078Z,1009.12
2022-12-22T14:10:01.097Z,1009.15
2022-12-22T14:20:01.081Z,1009.38
2022-12-22T14:30:01.024Z,1009.53
2022-12-22T14:40:01.304Z,1009.73
2022-12-22T14:50:01.062Z,1009.82
2022-12-22T15:00:00.952Z,1010.02
2022-12-22T15:10:14.947Z,1010.18
2022-12-22T15:20:01.122Z,1010.30
2022-12-22T15:30:00.990Z,1010.34
2022-12-22T15:40:01.003Z,1010.64
2022-12-22T15:50:01.060Z,1010.73
2022-12-22T16:00:02.052Z,1010.85
2022-12-22T16:10:01.227Z,1011.07
2022-12-22T16:20:01.046Z,1011.15
2022-12-22T16:30:01.618Z,1011.27
2022-12-22T16:40:01.372Z,1011.48
2022-12-22T16:50:02.626Z,1011.40
2022-12-22T17:10:01.275Z,1011.59
2022-12-22T17:20:01.350Z,1011.70
2022-12-22T17:30:01.228Z,1011.76
2022-12-22T17:40:01.403Z,1011.96
2022-12-22T17:50:01.312Z,1011.99
2022-12-22T18:00:01.132Z,1012.05
2022-12-22T18:10:01.090Z,1012.19
2022-12-22T18:20:01.114Z,1012.25
2022-12-22T18:30:01.692Z,1012.38
2022-12-22T18:40:01.784Z,1012.35
2022-12-22T18:50:01.087Z,1012.37
2022-12-22T19:00:01.178Z,1012.22
2022-12-22T19:10:01.196Z,1012.16
2022-12-22T19:20:01.027Z,1012.14
2022-12-22T19:30:04.333Z,1012.19
2022-12-22T19:40:01.343Z,1012.26
2022-12-22T19:50:00.146Z,1012.19
2022-12-22T20:00:01.477Z,1012.13
2022-12-22T20:10:01.034Z,1012.07
2022-12-22T20:20:00.967Z,1012.06
2022-12-22T20:30:01.448Z,1012.19
2022-12-22T20:40:01.318Z,1012.16
2022-12-22T20:50:01.271Z,1012.20
2022-12-22T21:00:03.135Z,1012.14
2022-12-22T21:10:01.248Z,1012.18
2022-12-22T21:20:01.275Z,1012.24
2022-12-22T21:30:01.023Z,1012.12
2022-12-22T21:40:00.200Z,1012.07
2022-12-22T21:50:01.853Z,1012.12
2022-12-22T22:00:01.257Z,1012.03
2022-12-22T22:10:00.194Z,1012.04
2022-12-22T22:20:01.276Z,1011.85
2022-12-22T22:30:01.623Z,1011.78
2022-12-22T22:40:02.223Z,1011.86
2022-12-22T22:50:02.835Z,1011.72
2022-12-22T23:00:01.663Z,1011.59
2022-12-22T23:10:03.530Z,1011.45
2022-12-22T23:20:01.948Z,1011.25
2022-12-22T23:30:01.290Z,1011.24
2022-12-22T23:40:17.595Z,1011.13
2022-12-22T23:50:01.009Z,1011.01
